sensor_id;sensor_type;location;lat;lon;timestamp;P1;durP1;ratioP1;P2;durP2;ratioP2
65461;SDS011;53236;43.666;18.444;2023-05-14T00:01:24;17.93;;;4.03;;
65461;SDS011;53236;43.666;18.444;2023-05-14T00:03:50;22.13;;;6.80;;
65461;SDS011;53236;43.666;18.444;2023-05-14T00:06:16;4.43;;;1.90;;
65461;SDS011;53236;43.666;18.444;2023-05-14T00:08:41;5.37;;;2.50;;
65461;SDS011;53236;43.666;18.444;2023-05-14T00:11:07;8.30;;;3.00;;
65461;SDS011;53236;43.666;18.444;2023-05-14T00:13:33;8.33;;;3.13;;
65461;SDS011;53236;43.666;18.444;2023-05-14T00:15:59;7.40;;;3.57;;
65461;SDS011;53236;43.666;18.444;2023-05-14T00:18:25;4.47;;;1.80;;
65461;SDS011;53236;43.666;18.444;2023-05-14T00:20:51;4.60;;;2.03;;
65461;SDS011;53236;43.666;18.444;2023-05-14T00:23:19;4.97;;;2.30;;
65461;SDS011;53236;43.666;18.444;2023-05-14T00:25:45;6.13;;;2.77;;
65461;SDS011;53236;43.666;18.444;2023-05-14T00:28:11;2.97;;;1.70;;
65461;SDS011;53236;43.666;18.444;2023-05-14T00:30:37;2.53;;;1.70;;
65461;SDS011;53236;43.666;18.444;2023-05-14T00:33:04;6.77;;;2.93;;
65461;SDS011;53236;43.666;18.444;2023-05-14T00:35:30;3.33;;;1.73;;
65461;SDS011;53236;43.666;18.444;2023-05-14T00:37:56;7.10;;;1.83;;
65461;SDS011;53236;43.666;18.444;2023-05-14T00:40:25;2.57;;;1.50;;
65461;SDS011;53236;43.666;18.444;2023-05-14T00:42:51;2.90;;;1.53;;
65461;SDS011;53236;43.666;18.444;2023-05-14T00:45:17;5.07;;;1.83;;
65461;SDS011;53236;43.666;18.444;2023-05-14T00:47:43;3.07;;;1.80;;
65461;SDS011;53236;43.666;18.444;2023-05-14T00:50:10;3.50;;;1.60;;
65461;SDS011;53236;43.666;18.444;2023-05-14T00:52:36;5.30;;;1.63;;
65461;SDS011;53236;43.666;18.444;2023-05-14T00:55:03;3.20;;;1.53;;
65461;SDS011;53236;43.666;18.444;2023-05-14T00:57:31;3.60;;;1.47;;
65461;SDS011;53236;43.666;18.444;2023-05-14T00:59:58;2.87;;;1.57;;
65461;SDS011;53236;43.666;18.444;2023-05-14T01:02:24;3.07;;;1.43;;
65461;SDS011;53236;43.666;18.444;2023-05-14T01:04:50;2.20;;;1.47;;
65461;SDS011;53236;43.666;18.444;2023-05-14T01:09:58;3.45;;;1.70;;
65461;SDS011;53236;43.666;18.444;2023-05-14T01:15:33;3.07;;;1.43;;
65461;SDS011;53236;43.666;18.444;2023-05-14T01:18:08;2.23;;;1.30;;
65461;SDS011;53236;43.666;18.444;2023-05-14T01:20:35;2.63;;;1.23;;
65461;SDS011;53236;43.666;18.444;2023-05-14T01:23:01;2.63;;;1.40;;
65461;SDS011;53236;43.666;18.444;2023-05-14T01:25:28;4.00;;;1.37;;
65461;SDS011;53236;43.666;18.444;2023-05-14T01:30:37;5.30;;;1.37;;
65461;SDS011;53236;43.666;18.444;2023-05-14T01:33:11;4.70;;;1.40;;
65461;SDS011;53236;43.666;18.444;2023-05-14T01:35:40;6.13;;;1.70;;
65461;SDS011;53236;43.666;18.444;2023-05-14T01:38:06;6.03;;;1.50;;
65461;SDS011;53236;43.666;18.444;2023-05-14T01:40:34;2.50;;;1.30;;
65461;SDS011;53236;43.666;18.444;2023-05-14T01:43:01;4.83;;;1.70;;
65461;SDS011;53236;43.666;18.444;2023-05-14T01:45:29;3.90;;;1.50;;
65461;SDS011;53236;43.666;18.444;2023-05-14T01:47:55;5.13;;;1.83;;
65461;SDS011;53236;43.666;18.444;2023-05-14T01:50:21;2.30;;;1.50;;
65461;SDS011;53236;43.666;18.444;2023-05-14T01:52:47;5.17;;;1.77;;
65461;SDS011;53236;43.666;18.444;2023-05-14T01:55:13;2.90;;;1.70;;
65461;SDS011;53236;43.666;18.444;2023-05-14T01:57:40;5.80;;;2.17;;
65461;SDS011;53236;43.666;18.444;2023-05-14T02:00:05;3.73;;;1.37;;
65461;SDS011;53236;43.666;18.444;2023-05-14T02:02:32;3.57;;;1.37;;
65461;SDS011;53236;43.666;18.444;2023-05-14T02:04:57;4.77;;;1.83;;
65461;SDS011;53236;43.666;18.444;2023-05-14T02:07:23;3.30;;;1.40;;
65461;SDS011;53236;43.666;18.444;2023-05-14T02:09:49;3.00;;;1.30;;
65461;SDS011;53236;43.666;18.444;2023-05-14T02:12:15;4.67;;;1.50;;
65461;SDS011;53236;43.666;18.444;2023-05-14T02:14:41;4.53;;;1.40;;
65461;SDS011;53236;43.666;18.444;2023-05-14T02:17:06;4.47;;;1.43;;
65461;SDS011;53236;43.666;18.444;2023-05-14T02:19:33;2.67;;;1.50;;
65461;SDS011;53236;43.666;18.444;2023-05-14T02:21:58;2.53;;;1.60;;
65461;SDS011;53236;43.666;18.444;2023-05-14T02:24:25;3.43;;;1.87;;
65461;SDS011;53236;43.666;18.444;2023-05-14T02:26:51;2.87;;;1.43;;
65461;SDS011;53236;43.666;18.444;2023-05-14T02:29:17;3.73;;;1.53;;
65461;SDS011;53236;43.666;18.444;2023-05-14T02:31:42;1.77;;;1.20;;
65461;SDS011;53236;43.666;18.444;2023-05-14T02:34:08;3.17;;;1.33;;
65461;SDS011;53236;43.666;18.444;2023-05-14T02:36:34;2.27;;;1.07;;
65461;SDS011;53236;43.666;18.444;2023-05-14T02:39:00;2.10;;;1.10;;
65461;SDS011;53236;43.666;18.444;2023-05-14T02:41:26;2.47;;;1.20;;
65461;SDS011;53236;43.666;18.444;2023-05-14T02:43:52;3.53;;;1.30;;
65461;SDS011;53236;43.666;18.444;2023-05-14T02:46:18;5.27;;;1.37;;
65461;SDS011;53236;43.666;18.444;2023-05-14T02:48:44;3.90;;;1.10;;
65461;SDS011;53236;43.666;18.444;2023-05-14T02:51:10;4.33;;;1.60;;
65461;SDS011;53236;43.666;18.444;2023-05-14T02:53:36;2.57;;;1.07;;
65461;SDS011;53236;43.666;18.444;2023-05-14T02:56:02;2.67;;;1.03;;
65461;SDS011;53236;43.666;18.444;2023-05-14T02:58:27;1.90;;;0.77;;
65461;SDS011;53236;43.666;18.444;2023-05-14T03:00:53;2.90;;;1.00;;
65461;SDS011;53236;43.666;18.444;2023-05-14T03:03:19;2.27;;;1.20;;
65461;SDS011;53236;43.666;18.444;2023-05-14T03:05:45;1.60;;;0.90;;
65461;SDS011;53236;43.666;18.444;2023-05-14T03:08:11;2.97;;;1.23;;
65461;SDS011;53236;43.666;18.444;2023-05-14T03:10:37;2.37;;;0.80;;
65461;SDS011;53236;43.666;18.444;2023-05-14T03:13:02;1.60;;;0.57;;
65461;SDS011;53236;43.666;18.444;2023-05-14T03:15:28;1.50;;;0.73;;
65461;SDS011;53236;43.666;18.444;2023-05-14T03:17:54;1.60;;;0.70;;
65461;SDS011;53236;43.666;18.444;2023-05-14T03:20:21;3.57;;;0.60;;
65461;SDS011;53236;43.666;18.444;2023-05-14T03:22:48;0.90;;;0.40;;
65461;SDS011;53236;43.666;18.444;2023-05-14T03:25:13;1.07;;;0.50;;
65461;SDS011;53236;43.666;18.444;2023-05-14T03:27:39;0.87;;;0.50;;
65461;SDS011;53236;43.666;18.444;2023-05-14T03:30:05;1.67;;;0.70;;
65461;SDS011;53236;43.666;18.444;2023-05-14T03:32:31;1.37;;;0.63;;
65461;SDS011;53236;43.666;18.444;2023-05-14T03:34:57;0.90;;;0.50;;
65461;SDS011;53236;43.666;18.444;2023-05-14T03:37:23;1.30;;;0.67;;
65461;SDS011;53236;43.666;18.444;2023-05-14T03:39:49;0.97;;;0.57;;
65461;SDS011;53236;43.666;18.444;2023-05-14T03:42:14;0.87;;;0.40;;
65461;SDS011;53236;43.666;18.444;2023-05-14T03:44:40;1.83;;;0.50;;
65461;SDS011;53236;43.666;18.444;2023-05-14T03:47:06;1.10;;;0.40;;
65461;SDS011;53236;43.666;18.444;2023-05-14T03:49:32;1.30;;;0.60;;
65461;SDS011;53236;43.666;18.444;2023-05-14T03:51:57;2.40;;;0.60;;
65461;SDS011;53236;43.666;18.444;2023-05-14T03:54:24;2.37;;;0.50;;
65461;SDS011;53236;43.666;18.444;2023-05-14T03:56:50;1.20;;;0.50;;
65461;SDS011;53236;43.666;18.444;2023-05-14T03:59:16;1.13;;;0.43;;
65461;SDS011;53236;43.666;18.444;2023-05-14T04:01:42;1.67;;;0.60;;
65461;SDS011;53236;43.666;18.444;2023-05-14T04:04:08;1.33;;;0.50;;
65461;SDS011;53236;43.666;18.444;2023-05-14T04:06:34;0.90;;;0.33;;
65461;SDS011;53236;43.666;18.444;2023-05-14T04:09:00;1.37;;;0.50;;
65461;SDS011;53236;43.666;18.444;2023-05-14T04:11:26;0.77;;;0.47;;
65461;SDS011;53236;43.666;18.444;2023-05-14T04:13:52;1.37;;;0.60;;
65461;SDS011;53236;43.666;18.444;2023-05-14T04:16:17;1.67;;;0.60;;
65461;SDS011;53236;43.666;18.444;2023-05-14T04:18:43;1.67;;;0.60;;
65461;SDS011;53236;43.666;18.444;2023-05-14T04:21:09;0.50;;;0.30;;
65461;SDS011;53236;43.666;18.444;2023-05-14T04:23:36;0.60;;;0.40;;
65461;SDS011;53236;43.666;18.444;2023-05-14T04:26:01;1.03;;;0.60;;
65461;SDS011;53236;43.666;18.444;2023-05-14T04:28:27;0.70;;;0.57;;
65461;SDS011;53236;43.666;18.444;2023-05-14T04:30:53;1.33;;;0.60;;
65461;SDS011;53236;43.666;18.444;2023-05-14T04:33:19;1.10;;;0.50;;
65461;SDS011;53236;43.666;18.444;2023-05-14T04:35:45;0.80;;;0.40;;
65461;SDS011;53236;43.666;18.444;2023-05-14T04:38:10;1.00;;;0.50;;
65461;SDS011;53236;43.666;18.444;2023-05-14T04:40:38;2.40;;;1.00;;
65461;SDS011;53236;43.666;18.444;2023-05-14T04:43:05;1.10;;;0.67;;
65461;SDS011;53236;43.666;18.444;2023-05-14T04:45:32;3.20;;;0.47;;
65461;SDS011;53236;43.666;18.444;2023-05-14T04:47:58;1.17;;;0.63;;
65461;SDS011;53236;43.666;18.444;2023-05-14T04:50:23;0.83;;;0.50;;
65461;SDS011;53236;43.666;18.444;2023-05-14T04:52:50;1.60;;;0.63;;
65461;SDS011;53236;43.666;18.444;2023-05-14T04:55:16;1.27;;;0.57;;
65461;SDS011;53236;43.666;18.444;2023-05-14T04:57:42;1.80;;;0.50;;
65461;SDS011;53236;43.666;18.444;2023-05-14T05:00:08;1.40;;;0.63;;
65461;SDS011;53236;43.666;18.444;2023-05-14T05:02:35;2.70;;;0.50;;
65461;SDS011;53236;43.666;18.444;2023-05-14T05:05:01;0.97;;;0.50;;
65461;SDS011;53236;43.666;18.444;2023-05-14T05:07:28;5.93;;;0.60;;
65461;SDS011;53236;43.666;18.444;2023-05-14T05:09:53;4.87;;;3.27;;
65461;SDS011;53236;43.666;18.444;2023-05-14T05:12:19;4.53;;;2.53;;
65461;SDS011;53236;43.666;18.444;2023-05-14T05:14:45;1.57;;;0.70;;
65461;SDS011;53236;43.666;18.444;2023-05-14T05:17:11;2.50;;;0.50;;
65461;SDS011;53236;43.666;18.444;2023-05-14T05:19:37;10.83;;;6.53;;
65461;SDS011;53236;43.666;18.444;2023-05-14T05:22:03;8.67;;;6.37;;
65461;SDS011;53236;43.666;18.444;2023-05-14T05:24:29;4.10;;;2.23;;
65461;SDS011;53236;43.666;18.444;2023-05-14T05:26:54;1.77;;;0.70;;
65461;SDS011;53236;43.666;18.444;2023-05-14T05:29:21;1.27;;;0.57;;
65461;SDS011;53236;43.666;18.444;2023-05-14T05:31:47;3.07;;;1.20;;
65461;SDS011;53236;43.666;18.444;2023-05-14T05:34:13;3.73;;;0.70;;
65461;SDS011;53236;43.666;18.444;2023-05-14T05:36:39;2.57;;;0.60;;
65461;SDS011;53236;43.666;18.444;2023-05-14T05:39:05;3.70;;;1.00;;
65461;SDS011;53236;43.666;18.444;2023-05-14T05:41:31;5.03;;;2.03;;
65461;SDS011;53236;43.666;18.444;2023-05-14T05:43:57;3.57;;;1.07;;
65461;SDS011;53236;43.666;18.444;2023-05-14T05:46:22;5.43;;;1.27;;
65461;SDS011;53236;43.666;18.444;2023-05-14T05:48:48;4.23;;;2.20;;
65461;SDS011;53236;43.666;18.444;2023-05-14T05:51:14;6.60;;;2.40;;
65461;SDS011;53236;43.666;18.444;2023-05-14T05:53:40;3.17;;;1.17;;
65461;SDS011;53236;43.666;18.444;2023-05-14T05:56:06;3.80;;;1.23;;
65461;SDS011;53236;43.666;18.444;2023-05-14T05:58:32;2.67;;;0.60;;
65461;SDS011;53236;43.666;18.444;2023-05-14T06:00:58;4.47;;;1.23;;
65461;SDS011;53236;43.666;18.444;2023-05-14T06:03:24;3.10;;;0.80;;
65461;SDS011;53236;43.666;18.444;2023-05-14T06:05:49;3.87;;;1.57;;
65461;SDS011;53236;43.666;18.444;2023-05-14T06:08:16;4.30;;;1.00;;
65461;SDS011;53236;43.666;18.444;2023-05-14T06:10:42;6.57;;;2.30;;
65461;SDS011;53236;43.666;18.444;2023-05-14T06:13:08;3.80;;;1.10;;
65461;SDS011;53236;43.666;18.444;2023-05-14T06:15:34;2.17;;;1.03;;
65461;SDS011;53236;43.666;18.444;2023-05-14T06:18:00;3.67;;;1.80;;
65461;SDS011;53236;43.666;18.444;2023-05-14T06:20:26;6.23;;;1.50;;
65461;SDS011;53236;43.666;18.444;2023-05-14T06:22:51;4.90;;;1.40;;
65461;SDS011;53236;43.666;18.444;2023-05-14T06:25:17;4.60;;;1.60;;
65461;SDS011;53236;43.666;18.444;2023-05-14T06:27:43;4.13;;;1.07;;
65461;SDS011;53236;43.666;18.444;2023-05-14T06:30:09;5.20;;;1.07;;
65461;SDS011;53236;43.666;18.444;2023-05-14T06:32:35;3.43;;;0.90;;
65461;SDS011;53236;43.666;18.444;2023-05-14T06:35:01;6.57;;;1.53;;
65461;SDS011;53236;43.666;18.444;2023-05-14T06:37:28;4.40;;;1.10;;
65461;SDS011;53236;43.666;18.444;2023-05-14T06:39:53;5.23;;;0.87;;
65461;SDS011;53236;43.666;18.444;2023-05-14T06:42:19;5.97;;;1.40;;
65461;SDS011;53236;43.666;18.444;2023-05-14T06:44:45;4.90;;;1.43;;
65461;SDS011;53236;43.666;18.444;2023-05-14T06:47:11;3.23;;;1.37;;
65461;SDS011;53236;43.666;18.444;2023-05-14T06:49:37;7.73;;;2.23;;
65461;SDS011;53236;43.666;18.444;2023-05-14T06:52:03;8.67;;;1.93;;
65461;SDS011;53236;43.666;18.444;2023-05-14T06:54:30;4.90;;;2.53;;
65461;SDS011;53236;43.666;18.444;2023-05-14T06:56:55;8.33;;;2.53;;
65461;SDS011;53236;43.666;18.444;2023-05-14T06:59:21;4.80;;;1.10;;
65461;SDS011;53236;43.666;18.444;2023-05-14T07:01:48;23.40;;;13.60;;
65461;SDS011;53236;43.666;18.444;2023-05-14T07:04:13;3.30;;;1.30;;
65461;SDS011;53236;43.666;18.444;2023-05-14T07:06:39;6.07;;;1.73;;
65461;SDS011;53236;43.666;18.444;2023-05-14T07:09:05;4.53;;;1.77;;
65461;SDS011;53236;43.666;18.444;2023-05-14T07:11:31;5.07;;;2.30;;
65461;SDS011;53236;43.666;18.444;2023-05-14T07:13:57;8.30;;;2.33;;
65461;SDS011;53236;43.666;18.444;2023-05-14T07:16:23;5.23;;;2.27;;
65461;SDS011;53236;43.666;18.444;2023-05-14T07:18:50;14.63;;;1.93;;
65461;SDS011;53236;43.666;18.444;2023-05-14T07:21:15;9.13;;;2.10;;
65461;SDS011;53236;43.666;18.444;2023-05-14T07:23:41;9.73;;;1.90;;
65461;SDS011;53236;43.666;18.444;2023-05-14T07:26:07;12.90;;;2.73;;
65461;SDS011;53236;43.666;18.444;2023-05-14T07:28:33;13.70;;;2.30;;
65461;SDS011;53236;43.666;18.444;2023-05-14T07:30:59;15.50;;;2.47;;
65461;SDS011;53236;43.666;18.444;2023-05-14T07:33:25;10.60;;;2.80;;
65461;SDS011;53236;43.666;18.444;2023-05-14T07:35:51;12.00;;;2.33;;
65461;SDS011;53236;43.666;18.444;2023-05-14T07:38:18;7.80;;;2.17;;
65461;SDS011;53236;43.666;18.444;2023-05-14T07:40:44;9.33;;;2.37;;
65461;SDS011;53236;43.666;18.444;2023-05-14T07:43:11;6.50;;;1.90;;
65461;SDS011;53236;43.666;18.444;2023-05-14T07:45:37;17.90;;;3.53;;
65461;SDS011;53236;43.666;18.444;2023-05-14T07:48:05;8.73;;;2.23;;
65461;SDS011;53236;43.666;18.444;2023-05-14T07:50:31;7.83;;;1.77;;
65461;SDS011;53236;43.666;18.444;2023-05-14T07:52:57;8.60;;;2.30;;
65461;SDS011;53236;43.666;18.444;2023-05-14T07:55:22;7.73;;;2.00;;
65461;SDS011;53236;43.666;18.444;2023-05-14T07:57:48;9.87;;;2.20;;
65461;SDS011;53236;43.666;18.444;2023-05-14T08:00:14;10.63;;;2.77;;
65461;SDS011;53236;43.666;18.444;2023-05-14T08:02:41;14.17;;;2.63;;
65461;SDS011;53236;43.666;18.444;2023-05-14T08:05:07;5.63;;;1.30;;
65461;SDS011;53236;43.666;18.444;2023-05-14T08:07:33;11.47;;;2.37;;
65461;SDS011;53236;43.666;18.444;2023-05-14T08:09:59;5.90;;;1.50;;
65461;SDS011;53236;43.666;18.444;2023-05-14T08:12:25;11.20;;;2.10;;
65461;SDS011;53236;43.666;18.444;2023-05-14T08:14:51;13.17;;;2.43;;
65461;SDS011;53236;43.666;18.444;2023-05-14T08:17:17;8.50;;;1.97;;
65461;SDS011;53236;43.666;18.444;2023-05-14T08:19:43;8.37;;;2.67;;
65461;SDS011;53236;43.666;18.444;2023-05-14T08:22:09;10.83;;;2.27;;
65461;SDS011;53236;43.666;18.444;2023-05-14T08:24:34;7.03;;;2.30;;
65461;SDS011;53236;43.666;18.444;2023-05-14T08:27:00;7.97;;;1.90;;
65461;SDS011;53236;43.666;18.444;2023-05-14T08:29:26;14.83;;;3.90;;
65461;SDS011;53236;43.666;18.444;2023-05-14T08:31:52;9.03;;;2.03;;
65461;SDS011;53236;43.666;18.444;2023-05-14T08:34:18;8.17;;;1.60;;
65461;SDS011;53236;43.666;18.444;2023-05-14T08:36:44;11.50;;;1.77;;
65461;SDS011;53236;43.666;18.444;2023-05-14T08:39:09;8.77;;;1.73;;
65461;SDS011;53236;43.666;18.444;2023-05-14T08:41:35;9.83;;;2.67;;
65461;SDS011;53236;43.666;18.444;2023-05-14T08:46:43;12.93;;;3.00;;
65461;SDS011;53236;43.666;18.444;2023-05-14T08:52:04;20.27;;;5.40;;
65461;SDS011;53236;43.666;18.444;2023-05-14T08:54:31;9.43;;;1.63;;
65461;SDS011;53236;43.666;18.444;2023-05-14T08:56:57;16.57;;;2.87;;
65461;SDS011;53236;43.666;18.444;2023-05-14T08:59:23;6.00;;;2.10;;
65461;SDS011;53236;43.666;18.444;2023-05-14T09:01:52;16.40;;;2.87;;
65461;SDS011;53236;43.666;18.444;2023-05-14T09:04:20;12.50;;;3.63;;
65461;SDS011;53236;43.666;18.444;2023-05-14T09:06:48;6.67;;;1.90;;
65461;SDS011;53236;43.666;18.444;2023-05-14T09:09:15;8.83;;;2.03;;
65461;SDS011;53236;43.666;18.444;2023-05-14T09:11:44;9.93;;;3.17;;
65461;SDS011;53236;43.666;18.444;2023-05-14T09:14:10;7.57;;;1.87;;
65461;SDS011;53236;43.666;18.444;2023-05-14T09:16:36;7.23;;;2.03;;
65461;SDS011;53236;43.666;18.444;2023-05-14T09:19:04;11.40;;;2.60;;
65461;SDS011;53236;43.666;18.444;2023-05-14T09:21:31;8.97;;;1.80;;
65461;SDS011;53236;43.666;18.444;2023-05-14T09:23:57;11.43;;;1.77;;
65461;SDS011;53236;43.666;18.444;2023-05-14T09:26:24;12.93;;;1.63;;
65461;SDS011;53236;43.666;18.444;2023-05-14T09:28:56;8.70;;;2.87;;
65461;SDS011;53236;43.666;18.444;2023-05-14T09:31:31;15.98;;;1.60;;
65461;SDS011;53236;43.666;18.444;2023-05-14T09:33:58;3.80;;;1.43;;
65461;SDS011;53236;43.666;18.444;2023-05-14T09:36:24;5.47;;;1.83;;
65461;SDS011;53236;43.666;18.444;2023-05-14T09:38:56;9.47;;;2.37;;
65461;SDS011;53236;43.666;18.444;2023-05-14T09:41:22;6.03;;;1.50;;
65461;SDS011;53236;43.666;18.444;2023-05-14T09:43:49;5.50;;;1.67;;
65461;SDS011;53236;43.666;18.444;2023-05-14T09:46:15;11.50;;;1.70;;
65461;SDS011;53236;43.666;18.444;2023-05-14T09:48:41;5.43;;;2.17;;
65461;SDS011;53236;43.666;18.444;2023-05-14T09:51:08;8.17;;;3.13;;
65461;SDS011;53236;43.666;18.444;2023-05-14T09:53:35;8.80;;;3.63;;
65461;SDS011;53236;43.666;18.444;2023-05-14T09:56:01;10.17;;;2.07;;
65461;SDS011;53236;43.666;18.444;2023-05-14T09:58:27;10.10;;;2.03;;
65461;SDS011;53236;43.666;18.444;2023-05-14T10:00:53;8.13;;;2.07;;
65461;SDS011;53236;43.666;18.444;2023-05-14T10:03:22;7.37;;;2.17;;
65461;SDS011;53236;43.666;18.444;2023-05-14T10:05:51;9.80;;;3.30;;
65461;SDS011;53236;43.666;18.444;2023-05-14T10:08:20;13.77;;;6.40;;
65461;SDS011;53236;43.666;18.444;2023-05-14T10:10:50;17.00;;;6.17;;
65461;SDS011;53236;43.666;18.444;2023-05-14T10:13:19;11.17;;;4.03;;
65461;SDS011;53236;43.666;18.444;2023-05-14T10:15:51;10.17;;;2.53;;
65461;SDS011;53236;43.666;18.444;2023-05-14T10:18:21;15.03;;;4.07;;
65461;SDS011;53236;43.666;18.444;2023-05-14T10:20:52;13.43;;;1.90;;
65461;SDS011;53236;43.666;18.444;2023-05-14T10:23:29;13.50;;;4.37;;
65461;SDS011;53236;43.666;18.444;2023-05-14T10:25:56;9.83;;;2.37;;
65461;SDS011;53236;43.666;18.444;2023-05-14T10:28:23;12.13;;;2.37;;
65461;SDS011;53236;43.666;18.444;2023-05-14T10:30:49;11.50;;;1.93;;
65461;SDS011;53236;43.666;18.444;2023-05-14T10:33:15;14.63;;;3.63;;
65461;SDS011;53236;43.666;18.444;2023-05-14T10:36:02;17.50;;;2.90;;
65461;SDS011;53236;43.666;18.444;2023-05-14T10:38:32;15.13;;;2.13;;
65461;SDS011;53236;43.666;18.444;2023-05-14T10:43:28;13.67;;;2.33;;
65461;SDS011;53236;43.666;18.444;2023-05-14T10:45:55;8.53;;;2.70;;
65461;SDS011;53236;43.666;18.444;2023-05-14T10:48:23;18.57;;;3.40;;
65461;SDS011;53236;43.666;18.444;2023-05-14T10:50:50;13.13;;;3.83;;
65461;SDS011;53236;43.666;18.444;2023-05-14T10:53:17;14.13;;;3.70;;
65461;SDS011;53236;43.666;18.444;2023-05-14T10:55:43;14.17;;;2.40;;
65461;SDS011;53236;43.666;18.444;2023-05-14T10:58:10;14.27;;;4.50;;
65461;SDS011;53236;43.666;18.444;2023-05-14T11:00:36;10.30;;;2.33;;
65461;SDS011;53236;43.666;18.444;2023-05-14T11:03:04;12.37;;;3.23;;
65461;SDS011;53236;43.666;18.444;2023-05-14T11:05:31;13.40;;;2.63;;
65461;SDS011;53236;43.666;18.444;2023-05-14T11:07:58;11.43;;;2.20;;
65461;SDS011;53236;43.666;18.444;2023-05-14T11:10:25;13.13;;;4.70;;
65461;SDS011;53236;43.666;18.444;2023-05-14T11:12:54;8.53;;;2.23;;
65461;SDS011;53236;43.666;18.444;2023-05-14T11:15:21;14.33;;;3.03;;
65461;SDS011;53236;43.666;18.444;2023-05-14T11:17:49;14.73;;;3.23;;
65461;SDS011;53236;43.666;18.444;2023-05-14T11:20:16;14.80;;;3.83;;
65461;SDS011;53236;43.666;18.444;2023-05-14T11:22:43;17.43;;;3.03;;
65461;SDS011;53236;43.666;18.444;2023-05-14T11:25:10;14.77;;;3.23;;
65461;SDS011;53236;43.666;18.444;2023-05-14T11:27:38;10.97;;;3.97;;
65461;SDS011;53236;43.666;18.444;2023-05-14T11:30:15;13.60;;;2.97;;
65461;SDS011;53236;43.666;18.444;2023-05-14T11:32:46;17.60;;;4.00;;
65461;SDS011;53236;43.666;18.444;2023-05-14T11:35:14;18.07;;;7.30;;
65461;SDS011;53236;43.666;18.444;2023-05-14T11:37:40;13.07;;;3.33;;
65461;SDS011;53236;43.666;18.444;2023-05-14T11:40:07;17.70;;;5.87;;
65461;SDS011;53236;43.666;18.444;2023-05-14T11:42:38;14.27;;;5.83;;
65461;SDS011;53236;43.666;18.444;2023-05-14T11:45:04;8.27;;;3.10;;
65461;SDS011;53236;43.666;18.444;2023-05-14T11:47:31;17.57;;;3.57;;
65461;SDS011;53236;43.666;18.444;2023-05-14T11:49:57;15.37;;;3.97;;
65461;SDS011;53236;43.666;18.444;2023-05-14T11:52:24;13.73;;;3.87;;
65461;SDS011;53236;43.666;18.444;2023-05-14T11:54:50;18.53;;;3.33;;
65461;SDS011;53236;43.666;18.444;2023-05-14T11:57:17;17.17;;;2.97;;
65461;SDS011;53236;43.666;18.444;2023-05-14T11:59:44;14.63;;;2.67;;
65461;SDS011;53236;43.666;18.444;2023-05-14T12:02:13;15.90;;;3.50;;
65461;SDS011;53236;43.666;18.444;2023-05-14T12:04:41;16.10;;;3.50;;
65461;SDS011;53236;43.666;18.444;2023-05-14T12:07:08;18.97;;;3.60;;
65461;SDS011;53236;43.666;18.444;2023-05-14T12:09:36;18.13;;;3.60;;
65461;SDS011;53236;43.666;18.444;2023-05-14T12:12:10;19.57;;;3.23;;
65461;SDS011;53236;43.666;18.444;2023-05-14T12:14:37;12.97;;;3.10;;
65461;SDS011;53236;43.666;18.444;2023-05-14T12:17:12;13.13;;;3.40;;
65461;SDS011;53236;43.666;18.444;2023-05-14T12:19:39;10.70;;;2.80;;
65461;SDS011;53236;43.666;18.444;2023-05-14T12:22:07;14.23;;;3.23;;
65461;SDS011;53236;43.666;18.444;2023-05-14T12:24:34;14.83;;;2.83;;
65461;SDS011;53236;43.666;18.444;2023-05-14T12:27:00;14.60;;;3.47;;
65461;SDS011;53236;43.666;18.444;2023-05-14T12:29:26;13.93;;;3.20;;
65461;SDS011;53236;43.666;18.444;2023-05-14T12:31:52;8.70;;;2.77;;
65461;SDS011;53236;43.666;18.444;2023-05-14T12:34:18;15.70;;;2.43;;
65461;SDS011;53236;43.666;18.444;2023-05-14T12:36:43;19.53;;;3.73;;
65461;SDS011;53236;43.666;18.444;2023-05-14T12:39:10;18.67;;;4.00;;
65461;SDS011;53236;43.666;18.444;2023-05-14T12:41:36;21.57;;;4.20;;
65461;SDS011;53236;43.666;18.444;2023-05-14T12:44:02;14.93;;;3.93;;
65461;SDS011;53236;43.666;18.444;2023-05-14T12:46:29;20.30;;;4.37;;
65461;SDS011;53236;43.666;18.444;2023-05-14T12:48:55;14.75;;;3.30;;
65461;SDS011;53236;43.666;18.444;2023-05-14T12:51:21;17.48;;;3.20;;
65461;SDS011;53236;43.666;18.444;2023-05-14T12:53:47;18.83;;;3.63;;
65461;SDS011;53236;43.666;18.444;2023-05-14T12:56:13;14.43;;;3.97;;
65461;SDS011;53236;43.666;18.444;2023-05-14T12:58:40;21.35;;;4.95;;
65461;SDS011;53236;43.666;18.444;2023-05-14T13:01:05;17.50;;;3.27;;
65461;SDS011;53236;43.666;18.444;2023-05-14T13:03:31;16.20;;;3.77;;
65461;SDS011;53236;43.666;18.444;2023-05-14T13:05:57;13.70;;;3.80;;
65461;SDS011;53236;43.666;18.444;2023-05-14T13:08:23;20.40;;;4.60;;
65461;SDS011;53236;43.666;18.444;2023-05-14T13:10:50;21.17;;;4.70;;
65461;SDS011;53236;43.666;18.444;2023-05-14T13:13:20;15.38;;;3.45;;
65461;SDS011;53236;43.666;18.444;2023-05-14T13:15:46;16.17;;;5.10;;
65461;SDS011;53236;43.666;18.444;2023-05-14T13:18:13;24.97;;;4.73;;
65461;SDS011;53236;43.666;18.444;2023-05-14T13:20:40;17.70;;;3.90;;
65461;SDS011;53236;43.666;18.444;2023-05-14T13:23:06;23.10;;;5.00;;
65461;SDS011;53236;43.666;18.444;2023-05-14T13:25:32;37.30;;;10.18;;
65461;SDS011;53236;43.666;18.444;2023-05-14T13:27:59;18.93;;;4.37;;
65461;SDS011;53236;43.666;18.444;2023-05-14T13:30:25;21.40;;;3.80;;
65461;SDS011;53236;43.666;18.444;2023-05-14T13:32:51;19.50;;;3.63;;
65461;SDS011;53236;43.666;18.444;2023-05-14T13:35:16;21.42;;;7.07;;
65461;SDS011;53236;43.666;18.444;2023-05-14T13:37:42;23.97;;;4.10;;
65461;SDS011;53236;43.666;18.444;2023-05-14T13:40:08;22.57;;;4.20;;
65461;SDS011;53236;43.666;18.444;2023-05-14T13:42:35;26.23;;;4.03;;
65461;SDS011;53236;43.666;18.444;2023-05-14T13:45:03;20.23;;;4.90;;
65461;SDS011;53236;43.666;18.444;2023-05-14T13:47:30;24.70;;;5.77;;
65461;SDS011;53236;43.666;18.444;2023-05-14T13:49:56;19.47;;;4.47;;
65461;SDS011;53236;43.666;18.444;2023-05-14T13:52:22;19.47;;;5.73;;
65461;SDS011;53236;43.666;18.444;2023-05-14T13:54:48;17.83;;;4.37;;
65461;SDS011;53236;43.666;18.444;2023-05-14T13:57:14;14.43;;;3.63;;
65461;SDS011;53236;43.666;18.444;2023-05-14T13:59:40;15.80;;;4.00;;
65461;SDS011;53236;43.666;18.444;2023-05-14T14:02:06;18.47;;;3.50;;
65461;SDS011;53236;43.666;18.444;2023-05-14T14:04:32;18.30;;;3.60;;
65461;SDS011;53236;43.666;18.444;2023-05-14T14:06:58;19.60;;;4.37;;
65461;SDS011;53236;43.666;18.444;2023-05-14T14:09:24;21.30;;;4.17;;
65461;SDS011;53236;43.666;18.444;2023-05-14T14:11:50;16.03;;;4.23;;
65461;SDS011;53236;43.666;18.444;2023-05-14T14:14:16;23.43;;;4.03;;
65461;SDS011;53236;43.666;18.444;2023-05-14T14:16:42;19.57;;;3.77;;
65461;SDS011;53236;43.666;18.444;2023-05-14T14:19:08;21.60;;;3.53;;
65461;SDS011;53236;43.666;18.444;2023-05-14T14:21:34;18.00;;;3.60;;
65461;SDS011;53236;43.666;18.444;2023-05-14T14:24:03;18.27;;;4.27;;
65461;SDS011;53236;43.666;18.444;2023-05-14T14:26:30;17.13;;;3.93;;
65461;SDS011;53236;43.666;18.444;2023-05-14T14:28:55;17.53;;;4.27;;
65461;SDS011;53236;43.666;18.444;2023-05-14T14:31:22;17.87;;;4.00;;
65461;SDS011;53236;43.666;18.444;2023-05-14T14:33:49;20.90;;;4.03;;
65461;SDS011;53236;43.666;18.444;2023-05-14T14:36:16;18.33;;;4.20;;
65461;SDS011;53236;43.666;18.444;2023-05-14T14:38:41;22.50;;;3.93;;
65461;SDS011;53236;43.666;18.444;2023-05-14T14:41:07;22.43;;;3.90;;